createdAt,value
2023-05-11T00:00:37.524Z,100741.47
2023-05-11T00:03:04.160Z,100743.59
2023-05-11T00:05:30.822Z,100741.27
2023-05-11T00:07:57.252Z,100741.11
2023-05-11T00:10:23.865Z,100745.73
2023-05-11T00:12:50.352Z,100743.79
2023-05-11T00:15:16.764Z,100742.73
2023-05-11T00:17:44.697Z,100741.66
2023-05-11T00:20:11.305Z,100739.89
2023-05-11T00:22:38.610Z,100740.23
2023-05-11T00:25:06.164Z,100746.42
2023-05-11T00:27:32.978Z,100747.48
2023-05-11T00:29:59.622Z,100744.83
2023-05-11T00:32:26.159Z,100742.35
2023-05-11T00:34:52.669Z,100745.56
2023-05-11T00:37:19.181Z,100744.32
2023-05-11T00:39:45.693Z,100747.15
2023-05-11T00:42:12.261Z,100743.78
2023-05-11T00:44:38.834Z,100744.85
2023-05-11T00:47:05.666Z,100744.84
2023-05-11T00:49:32.413Z,100745.04
2023-05-11T00:52:02.285Z,100746.63
2023-05-11T00:54:30.196Z,100745.23
2023-05-11T00:56:56.938Z,100750.89
2023-05-11T00:59:23.594Z,100748.95
2023-05-11T01:01:50.206Z,100750.38
2023-05-11T01:04:16.838Z,100754.27
2023-05-11T01:06:55.287Z,100756.92
2023-05-11T01:09:37.453Z,100759.95
2023-05-11T01:12:14.710Z,100757.46
2023-05-11T01:14:48.812Z,100755.87
2023-05-11T01:17:19.908Z,100757.11
2023-05-11T01:19:50.280Z,100757.98
2023-05-11T01:22:25.737Z,100757.81
2023-05-11T01:25:14.333Z,100763.31
2023-05-11T01:27:51.093Z,100764.20
2023-05-11T01:30:25.844Z,100764.20
2023-05-11T01:32:55.210Z,100765.42
2023-05-11T01:35:23.059Z,100768.09
2023-05-11T01:37:51.548Z,100765.60
2023-05-11T01:40:27.032Z,100764.02
2023-05-11T01:43:01.698Z,100763.46
2023-05-11T01:45:28.860Z,100763.11
2023-05-11T01:47:55.390Z,100761.70
2023-05-11T01:50:22.449Z,100760.63
2023-05-11T01:52:49.007Z,100767.35
2023-05-11T01:55:17.271Z,100765.23
2023-05-11T01:57:43.705Z,100769.46
2023-05-11T02:00:10.633Z,100769.46
2023-05-11T02:02:41.844Z,100769.29
2023-05-11T02:05:08.465Z,100768.05
2023-05-11T02:07:35.778Z,100769.81
2023-05-11T02:10:02.339Z,100770.52
2023-05-11T02:12:30.275Z,100769.66
2023-05-11T02:14:57.002Z,100774.98
2023-05-11T02:17:23.469Z,100775.87
2023-05-11T02:19:50.447Z,100775.52
2023-05-11T02:22:17.219Z,100774.83
2023-05-11T02:24:43.713Z,100780.12
2023-05-11T02:27:12.333Z,100782.96
2023-05-11T02:29:39.238Z,100788.45
2023-05-11T02:32:07.257Z,100787.40
2023-05-11T02:34:45.976Z,100794.30
2023-05-11T02:37:13.552Z,100796.06
2023-05-11T02:39:40.924Z,100795.00
2023-05-11T02:42:13.576Z,100795.34
2023-05-11T02:44:44.012Z,100797.83
2023-05-11T02:47:11.920Z,100798.36
2023-05-11T02:49:38.923Z,100796.96
2023-05-11T02:52:07.014Z,100802.11
2023-05-11T02:54:34.791Z,100802.11
2023-05-11T02:57:01.349Z,100802.11
2023-05-11T02:59:27.966Z,100805.48
2023-05-11T03:01:54.550Z,100807.98
2023-05-11T03:04:21.884Z,100814.17
2023-05-11T03:06:48.377Z,100816.66
2023-05-11T03:09:15.271Z,100819.48
2023-05-11T03:11:44.918Z,100820.02
2023-05-11T03:14:11.805Z,100824.63
2023-05-11T03:16:38.340Z,100826.21
2023-05-11T03:19:05.767Z,100824.42
2023-05-11T03:21:33.706Z,100826.02
2023-05-11T03:24:00.182Z,100827.42
2023-05-11T03:26:26.986Z,100829.36
2023-05-11T03:28:53.454Z,100830.23
2023-05-11T03:31:19.888Z,100833.97
2023-05-11T03:33:46.739Z,100835.72
2023-05-11T03:36:13.724Z,100836.93
2023-05-11T03:38:40.546Z,100841.17
2023-05-11T03:41:10.044Z,100839.55
2023-05-11T03:43:36.969Z,100844.66
2023-05-11T03:46:03.677Z,100853.86
2023-05-11T03:49:53.455Z,100856.45
2023-05-11T03:52:20.243Z,100861.37
2023-05-11T03:54:46.895Z,100860.24
2023-05-11T03:57:14.506Z,100858.92
2023-05-11T03:59:41.209Z,100864.86
2023-05-11T04:02:08.652Z,100871.65
2023-05-11T04:04:37.955Z,100880.23
2023-05-11T04:07:04.689Z,100876.52
2023-05-11T04:09:31.522Z,100877.77
2023-05-11T04:11:58.258Z,100884.47
2023-05-11T04:14:24.997Z,100888.67
2023-05-11T04:16:51.630Z,100894.98
2023-05-11T04:19:18.392Z,100902.35
2023-05-11T04:21:46.456Z,100911.16
2023-05-11T04:24:13.288Z,100911.08
2023-05-11T04:26:39.932Z,100912.62
2023-05-11T04:29:06.653Z,100917.40
2023-05-11T04:31:33.999Z,100923.60
2023-05-11T04:34:02.667Z,100932.30
2023-05-11T04:36:30.035Z,100932.61
2023-05-11T04:38:56.959Z,100937.17
2023-05-11T04:41:24.153Z,100940.08
2023-05-11T04:43:51.592Z,100937.49
2023-05-11T04:46:18.455Z,100942.59
2023-05-11T04:48:45.408Z,100946.99
2023-05-11T04:51:12.518Z,100950.73
2023-05-11T04:53:42.492Z,100954.81
2023-05-11T04:56:09.508Z,100957.50
2023-05-11T04:58:36.542Z,100956.79
2023-05-11T05:01:04.152Z,100959.29
2023-05-11T05:05:57.557Z,100964.02
2023-05-11T05:08:24.224Z,100967.11
2023-05-11T05:10:50.900Z,100968.73
2023-05-11T05:13:17.870Z,100975.35
2023-05-11T05:15:44.666Z,100978.73
2023-05-11T05:18:11.880Z,100980.45
2023-05-11T05:20:39.833Z,100976.56
2023-05-11T05:23:06.543Z,100981.64
2023-05-11T05:25:33.904Z,100985.20
2023-05-11T05:28:00.774Z,100987.48
2023-05-11T05:30:27.829Z,100986.89
2023-05-11T05:32:55.150Z,100991.84
2023-05-11T05:35:23.496Z,100995.02
2023-05-11T05:37:50.300Z,101002.10
2023-05-11T05:40:17.466Z,100999.15
2023-05-11T05:42:50.888Z,101003.98
2023-05-11T05:45:20.912Z,101006.91
2023-05-11T05:47:49.220Z,101010.08
2023-05-11T05:50:16.568Z,101011.48
2023-05-11T05:52:43.760Z,101014.81
2023-05-11T05:55:11.183Z,101018.70
2023-05-11T05:57:38.885Z,101018.48
2023-05-11T06:00:06.662Z,101022.38
2023-05-11T06:02:39.636Z,101023.73
2023-05-11T06:05:08.233Z,101028.67
2023-05-11T06:07:34.936Z,101026.58
2023-05-11T06:10:02.477Z,101024.69
2023-05-11T06:12:29.990Z,101027.79
2023-05-11T06:14:57.427Z,101028.48
2023-05-11T06:17:24.576Z,101028.26
2023-05-11T06:19:51.503Z,101030.16
2023-05-11T06:22:19.730Z,101028.37
2023-05-11T06:24:47.405Z,101033.27
2023-05-11T06:27:17.359Z,101032.36
2023-05-11T06:29:45.145Z,101037.93
2023-05-11T06:32:11.982Z,101040.39
2023-05-11T06:34:39.492Z,101041.02
2023-05-11T06:37:06.689Z,101044.44
2023-05-11T06:39:37.693Z,101035.45
2023-05-11T06:42:06.867Z,101033.60
2023-05-11T06:44:34.524Z,101035.77
2023-05-11T06:47:01.265Z,101036.27
2023-05-11T06:49:27.999Z,101033.05
2023-05-11T06:51:54.651Z,101033.95
2023-05-11T06:54:22.310Z,101037.69
2023-05-11T06:56:48.992Z,101034.84
2023-05-11T06:59:15.633Z,101036.81
2023-05-11T07:01:42.376Z,101035.67
2023-05-11T07:04:09.284Z,101034.95
2023-05-11T07:06:36.178Z,101036.11
2023-05-11T07:09:03.868Z,101033.45
2023-05-11T07:11:31.032Z,101033.56
2023-05-11T07:13:57.743Z,101032.57
2023-05-11T07:16:24.473Z,101037.70
2023-05-11T07:18:51.173Z,101039.02
2023-05-11T07:21:17.942Z,101039.42
2023-05-11T07:23:44.762Z,101041.41
2023-05-11T07:26:11.456Z,101041.17
2023-05-11T07:28:38.248Z,101032.82
2023-05-11T07:31:05.271Z,101038.07
2023-05-11T07:33:33.562Z,101031.66
2023-05-11T07:36:00.422Z,101034.23
2023-05-11T07:38:27.132Z,101030.25
2023-05-11T07:40:53.849Z,101028.41
2023-05-11T07:43:20.561Z,101031.52
2023-05-11T07:45:47.252Z,101036.07
2023-05-11T07:48:13.973Z,101026.05
2023-05-11T07:50:42.430Z,101029.85
2023-05-11T07:53:09.323Z,101023.86
2023-05-11T07:55:36.152Z,101023.41
2023-05-11T07:58:02.787Z,101016.81
2023-05-11T08:00:29.451Z,101020.01
2023-05-11T08:02:56.891Z,101018.94
2023-05-11T08:05:23.890Z,101012.80
2023-05-11T08:07:50.612Z,101011.82
2023-05-11T08:10:17.306Z,101018.80
2023-05-11T08:12:43.980Z,101020.08
2023-05-11T08:15:11.307Z,101017.58
2023-05-11T08:17:38.017Z,101017.50
2023-05-11T08:20:06.761Z,101018.34
2023-05-11T08:22:33.629Z,101015.61
2023-05-11T08:25:00.804Z,101012.27
2023-05-11T08:27:27.505Z,101006.39
2023-05-11T08:29:55.074Z,101007.34
2023-05-11T08:32:21.886Z,101011.05
2023-05-11T08:34:48.858Z,101010.00
2023-05-11T08:37:15.730Z,101010.15
2023-05-11T08:42:13.948Z,101006.30
2023-05-11T08:44:40.906Z,101005.02
2023-05-11T08:47:21.903Z,101005.70
2023-05-11T08:49:51.832Z,101003.29
2023-05-11T08:52:18.562Z,101000.87
2023-05-11T08:54:46.300Z,101008.70
2023-05-11T08:57:13.865Z,101013.08
2023-05-11T08:59:44.718Z,101007.77
2023-05-11T09:02:14.608Z,101008.21
2023-05-11T09:04:41.625Z,101004.85
2023-05-11T09:07:09.752Z,101001.41
2023-05-11T09:09:36.402Z,101001.35
2023-05-11T09:12:03.963Z,100996.24
2023-05-11T09:14:30.605Z,100992.13
2023-05-11T09:16:58.939Z,100995.70
2023-05-11T09:19:25.778Z,100996.36
2023-05-11T09:21:53.147Z,100994.16
2023-05-11T09:24:20.476Z,100998.56
2023-05-11T09:26:47.264Z,101000.19
2023-05-11T09:29:14.186Z,100998.89
2023-05-11T09:31:45.582Z,100998.23
2023-05-11T09:34:22.544Z,100997.76
2023-05-11T09:36:56.916Z,100994.58
2023-05-11T09:39:44.588Z,100994.26
2023-05-11T09:42:22.815Z,100984.66
2023-05-11T09:44:49.469Z,100980.65
2023-05-11T09:47:20.339Z,100977.33
2023-05-11T09:49:47.783Z,100969.52
2023-05-11T09:52:18.628Z,100968.52
2023-05-11T09:54:47.143Z,100966.16
2023-05-11T09:57:27.510Z,100968.05
2023-05-11T09:59:54.599Z,100969.09
2023-05-11T10:02:26.227Z,100972.21
2023-05-11T10:04:54.425Z,100958.88
2023-05-11T10:07:30.915Z,100956.35
2023-05-11T10:09:59.089Z,100958.57
2023-05-11T10:12:26.178Z,100957.08
2023-05-11T10:15:14.545Z,100953.02
2023-05-11T10:17:44.585Z,100954.51
2023-05-11T10:20:11.623Z,100952.02
2023-05-11T10:22:38.356Z,100946.75
2023-05-11T10:25:06.504Z,100941.40
2023-05-11T10:27:33.247Z,100934.24
2023-05-11T10:29:59.924Z,100926.33
2023-05-11T10:32:27.628Z,100924.09
2023-05-11T10:34:54.412Z,100923.67
2023-05-11T10:37:21.275Z,100921.88
2023-05-11T10:39:50.265Z,100921.20
2023-05-11T10:42:49.464Z,100913.23
2023-05-11T10:45:41.804Z,100913.34
2023-05-11T10:48:11.420Z,100915.47
2023-05-11T10:50:47.603Z,100911.20
2023-05-11T10:53:37.707Z,100907.64
2023-05-11T10:56:40.644Z,100907.05
2023-05-11T10:59:16.611Z,100906.13
2023-05-11T11:01:43.711Z,100905.58
2023-05-11T11:04:11.876Z,100900.04
2023-05-11T11:06:40.391Z,100897.79
2023-05-11T11:09:13.072Z,100888.39
2023-05-11T11:11:41.105Z,100887.07
2023-05-11T11:14:09.688Z,100887.01
2023-05-11T11:16:37.408Z,100881.83
2023-05-11T11:19:32.849Z,100881.29
2023-05-11T11:22:00.441Z,100881.30
2023-05-11T11:24:53.675Z,100878.83
2023-05-11T11:27:21.366Z,100875.77
2023-05-11T11:30:20.265Z,100876.94
2023-05-11T11:32:48.410Z,100871.02
2023-05-11T11:35:43.585Z,100868.27
2023-05-11T11:38:11.948Z,100867.27
2023-05-11T11:40:50.065Z,100866.48
2023-05-11T11:43:22.060Z,100866.46
2023-05-11T11:46:01.601Z,100861.06
2023-05-11T11:48:38.931Z,100853.88
2023-05-11T11:51:05.664Z,100848.05
2023-05-11T11:53:41.012Z,100846.09
2023-05-11T11:56:09.159Z,100839.95
2023-05-11T11:58:45.243Z,100832.75
2023-05-11T12:01:12.992Z,100831.45
2023-05-11T12:03:41.515Z,100828.77
2023-05-11T12:06:09.538Z,100825.71
2023-05-11T12:08:37.138Z,100823.25
2023-05-11T12:11:04.531Z,100821.36
2023-05-11T12:13:32.172Z,100818.24
2023-05-11T12:16:18.875Z,100816.15
2023-05-11T12:18:59.183Z,100812.16
2023-05-11T12:21:29.122Z,100812.89
2023-05-11T12:23:57.383Z,100809.55
2023-05-11T12:26:24.925Z,100805.10
2023-05-11T12:28:51.959Z,100807.46
2023-05-11T12:31:18.769Z,100802.29
2023-05-11T12:33:49.698Z,100799.76
2023-05-11T12:36:16.855Z,100793.59
2023-05-11T12:38:47.157Z,100797.56
2023-05-11T12:41:23.679Z,100793.89
2023-05-11T12:43:50.817Z,100796.10
2023-05-11T12:46:18.028Z,100794.21
2023-05-11T12:48:46.025Z,100790.76
2023-05-11T12:51:12.781Z,100790.61
2023-05-11T12:53:39.911Z,100791.38
2023-05-11T12:56:07.057Z,100788.58
2023-05-11T12:58:40.446Z,100783.98
2023-05-11T13:01:09.049Z,100783.02
2023-05-11T13:03:36.576Z,100778.02
2023-05-11T13:06:13.111Z,100779.39
2023-05-11T13:08:44.812Z,100773.55
2023-05-11T13:11:26.826Z,100778.11
2023-05-11T13:13:54.931Z,100772.71
2023-05-11T13:16:29.146Z,100774.34
2023-05-11T13:18:59.815Z,100769.98
2023-05-11T13:21:26.998Z,100765.57
2023-05-11T13:23:54.471Z,100765.83
2023-05-11T13:26:29.184Z,100761.57
2023-05-11T13:29:09.607Z,100759.92
2023-05-11T13:31:51.095Z,100755.77
2023-05-11T13:34:18.846Z,100748.73
2023-05-11T13:36:46.018Z,100750.23
2023-05-11T13:39:12.731Z,100744.40
2023-05-11T13:41:39.382Z,100742.50
2023-05-11T13:44:06.193Z,100741.86
2023-05-11T13:46:32.841Z,100737.44
2023-05-11T13:49:00.479Z,100739.85
2023-05-11T13:51:27.790Z,100738.14
2023-05-11T13:53:54.600Z,100732.70
2023-05-11T13:56:22.297Z,100734.95
2023-05-11T13:58:49.151Z,100728.05
2023-05-11T14:01:16.542Z,100722.73
2023-05-11T14:03:43.424Z,100718.42
2023-05-11T14:06:10.278Z,100719.20
2023-05-11T14:08:36.941Z,100716.14
2023-05-11T14:11:03.664Z,100713.30
2023-05-11T14:13:30.466Z,100712.73
2023-05-11T14:15:57.219Z,100715.23
2023-05-11T14:18:26.045Z,100713.84
2023-05-11T14:20:53.920Z,100718.66
2023-05-11T14:23:20.696Z,100713.21
2023-05-11T14:25:47.313Z,100711.70
2023-05-11T14:28:14.027Z,100709.77
2023-05-11T14:30:40.839Z,100705.44
2023-05-11T14:33:07.862Z,100704.51
2023-05-11T14:35:36.474Z,100704.88
2023-05-11T14:38:04.671Z,100701.48
2023-05-11T14:40:31.556Z,100698.31
2023-05-11T14:42:58.267Z,100697.21
2023-05-11T14:45:25.020Z,100691.21
2023-05-11T14:47:51.783Z,100688.17
2023-05-11T14:50:18.570Z,100685.25
2023-05-11T14:52:45.326Z,100684.65
2023-05-11T14:55:12.143Z,100680.98
2023-05-11T14:57:39.561Z,100680.87
2023-05-11T15:00:07.055Z,100680.55
2023-05-11T15:02:33.803Z,100676.83
2023-05-11T15:05:00.792Z,100677.45
2023-05-11T15:07:27.442Z,100678.47
2023-05-11T15:09:54.249Z,100679.73
2023-05-11T15:12:21.019Z,100675.63
2023-05-11T15:14:47.682Z,100678.46
2023-05-11T15:17:14.339Z,100673.77
2023-05-11T15:19:41.073Z,100667.92
2023-05-11T15:22:07.763Z,100665.75
2023-05-11T15:24:34.392Z,100662.14
2023-05-11T15:27:01.097Z,100664.54
2023-05-11T15:29:27.850Z,100663.70
2023-05-11T15:31:54.548Z,100661.56
2023-05-11T15:34:21.352Z,100660.87
2023-05-11T15:36:49.762Z,100658.74
2023-05-11T15:39:17.708Z,100657.55
2023-05-11T15:41:44.438Z,100654.80
2023-05-11T15:44:11.549Z,100654.40
2023-05-11T15:46:38.627Z,100654.06
2023-05-11T15:49:06.173Z,100654.86
2023-05-11T15:51:33.309Z,100651.42
2023-05-11T15:54:00.032Z,100651.60
2023-05-11T15:56:27.057Z,100651.84
2023-05-11T15:58:53.915Z,100648.69
2023-05-11T16:01:21.345Z,100650.65
2023-05-11T16:06:45.935Z,100647.34
2023-05-11T16:09:12.615Z,100647.98
2023-05-11T16:11:39.676Z,100647.52
2023-05-11T16:14:06.331Z,100640.86
2023-05-11T16:16:33.153Z,100644.92
2023-05-11T16:19:00.188Z,100646.02
2023-05-11T16:21:27.280Z,100648.98
2023-05-11T16:23:54.398Z,100646.96
2023-05-11T16:26:21.264Z,100648.92
2023-05-11T16:28:47.915Z,100647.15
2023-05-11T16:31:15.431Z,100647.00
2023-05-11T16:33:42.335Z,100649.68
2023-05-11T16:36:09.035Z,100649.41
2023-05-11T16:38:35.946Z,100648.66
2023-05-11T16:41:02.689Z,100645.11
2023-05-11T16:43:29.425Z,100642.31
2023-05-11T16:45:56.204Z,100641.73
2023-05-11T16:48:22.869Z,100645.15
2023-05-11T16:50:49.867Z,100643.70
2023-05-11T16:53:17.668Z,100639.76
2023-05-11T16:55:44.356Z,100643.14
2023-05-11T16:58:11.144Z,100641.14
2023-05-11T17:00:37.955Z,100637.70
2023-05-11T17:03:04.678Z,100634.99
2023-05-11T17:05:31.564Z,100636.10
2023-05-11T17:07:58.435Z,100634.45
2023-05-11T17:10:25.384Z,100629.92
2023-05-11T17:12:52.239Z,100628.44
2023-05-11T17:15:19.099Z,100629.70
2023-05-11T17:17:45.806Z,100630.35
2023-05-11T17:20:13.086Z,100627.90
2023-05-11T17:22:39.800Z,100634.41
2023-05-11T17:25:07.348Z,100636.34
2023-05-11T17:27:40.033Z,100634.03
2023-05-11T17:30:07.428Z,100631.69
2023-05-11T17:32:34.425Z,100630.16
2023-05-11T17:35:01.605Z,100634.29
2023-05-11T17:37:32.280Z,100635.53
2023-05-11T17:40:01.119Z,100634.31
2023-05-11T17:42:28.557Z,100633.71
2023-05-11T17:44:55.749Z,100638.02
2023-05-11T17:47:22.527Z,100634.69
2023-05-11T17:49:49.331Z,100636.17
2023-05-11T17:52:16.060Z,100639.35
2023-05-11T17:54:42.822Z,100635.93
2023-05-11T17:57:09.486Z,100641.47
2023-05-11T17:59:36.169Z,100639.38
2023-05-11T18:02:03.378Z,100644.09
2023-05-11T18:04:30.074Z,100647.17
2023-05-11T18:06:57.376Z,100646.70
2023-05-11T18:09:24.257Z,100642.35
2023-05-11T18:11:50.944Z,100645.16
2023-05-11T18:14:18.014Z,100644.46
2023-05-11T18:16:44.766Z,100648.86
2023-05-11T18:19:11.551Z,100649.51
2023-05-11T18:21:38.459Z,100651.29
2023-05-11T18:24:06.237Z,100650.32
2023-05-11T18:26:32.927Z,100649.55
2023-05-11T18:28:59.728Z,100656.48
2023-05-11T18:31:27.868Z,100657.45
2023-05-11T18:33:55.549Z,100654.67
2023-05-11T18:36:22.403Z,100656.25
2023-05-11T18:38:49.190Z,100659.08
2023-05-11T18:41:15.897Z,100660.71
2023-05-11T18:43:43.873Z,100661.02
2023-05-11T18:46:10.946Z,100660.52
2023-05-11T18:48:39.009Z,100661.56
2023-05-11T18:51:06.016Z,100660.66
2023-05-11T18:53:33.533Z,100662.92
2023-05-11T18:56:00.280Z,100661.06
2023-05-11T18:58:27.155Z,100662.12
2023-05-11T19:00:53.912Z,100659.56
2023-05-11T19:03:22.012Z,100655.63
2023-05-11T19:05:49.546Z,100656.54
2023-05-11T19:08:16.673Z,100657.60
2023-05-11T19:10:45.346Z,100653.91
2023-05-11T19:13:13.350Z,100657.44
2023-05-11T19:15:40.374Z,100654.53
2023-05-11T19:18:07.247Z,100657.75
2023-05-11T19:20:34.365Z,100662.41
2023-05-11T19:23:01.133Z,100659.11
2023-05-11T19:25:28.479Z,100656.38
2023-05-11T19:27:57.179Z,100658.34
2023-05-11T19:30:24.817Z,100657.46
2023-05-11T19:32:51.541Z,100656.25
2023-05-11T19:35:19.196Z,100660.83
2023-05-11T19:37:50.570Z,100664.48
2023-05-11T19:42:49.595Z,100666.72
2023-05-11T19:45:17.170Z,100666.04
2023-05-11T19:47:44.660Z,100664.20
2023-05-11T19:50:12.446Z,100665.54
2023-05-11T19:52:39.090Z,100666.02
2023-05-11T19:55:06.354Z,100664.70
2023-05-11T19:57:37.296Z,100662.29
2023-05-11T20:00:09.691Z,100658.58
2023-05-11T20:02:36.629Z,100657.40
2023-05-11T20:05:04.362Z,100654.10
2023-05-11T20:07:31.972Z,100655.23
2023-05-11T20:09:58.687Z,100659.78
2023-05-11T20:12:25.624Z,100658.23
2023-05-11T20:14:52.750Z,100659.34
2023-05-11T20:17:19.426Z,100658.70
2023-05-11T20:19:46.526Z,100658.62
2023-05-11T20:22:13.553Z,100658.23
2023-05-11T20:24:40.189Z,100662.81
2023-05-11T20:27:09.645Z,100661.27
2023-05-11T20:29:36.644Z,100659.64
2023-05-11T20:32:03.593Z,100659.00
2023-05-11T20:34:30.372Z,100659.63
2023-05-11T20:36:57.101Z,100661.16
2023-05-11T20:39:23.868Z,100661.32
2023-05-11T20:41:50.595Z,100659.64
2023-05-11T20:44:17.649Z,100663.88
2023-05-11T20:46:46.920Z,100664.34
2023-05-11T20:49:22.262Z,100666.59
2023-05-11T20:51:51.701Z,100666.08
2023-05-11T20:54:18.427Z,100669.85
2023-05-11T20:56:45.415Z,100673.45
2023-05-11T21:00:03.739Z,100674.35
2023-05-11T21:01:59.513Z,100676.92
2023-05-11T21:04:26.232Z,100675.15
2023-05-11T21:06:56.035Z,100674.14
2023-05-11T21:09:22.748Z,100676.73
2023-05-11T21:11:49.428Z,100674.52
2023-05-11T21:14:16.447Z,100675.36
2023-05-11T21:16:43.106Z,100671.93
2023-05-11T21:19:09.919Z,100676.94
2023-05-11T21:21:36.760Z,100677.07
2023-05-11T21:24:04.216Z,100680.35
2023-05-11T21:26:30.860Z,100680.05
2023-05-11T21:28:57.755Z,100683.50
2023-05-11T21:31:24.548Z,100681.95
2023-05-11T21:33:52.004Z,100681.11
2023-05-11T21:36:18.783Z,100684.24
2023-05-11T21:38:45.538Z,100684.23
2023-05-11T21:41:12.247Z,100685.61
2023-05-11T21:43:38.985Z,100684.57
2023-05-11T21:46:06.201Z,100692.42
2023-05-11T21:48:32.881Z,100691.54
2023-05-11T21:50:59.513Z,100691.36
2023-05-11T21:53:26.537Z,100695.27
2023-05-11T21:55:53.235Z,100697.20
2023-05-11T21:58:19.935Z,100697.37
2023-05-11T22:00:46.671Z,100696.67
2023-05-11T22:03:13.580Z,100695.79
2023-05-11T22:05:40.303Z,100697.72
2023-05-11T22:08:14.876Z,100695.88
2023-05-11T22:10:43.426Z,100700.64
2023-05-11T22:13:10.408Z,100702.09
2023-05-11T22:15:37.283Z,100700.52
2023-05-11T22:18:05.162Z,100707.12
2023-05-11T22:20:32.106Z,100706.05
2023-05-11T22:22:59.368Z,100704.67
2023-05-11T22:25:26.693Z,100709.36
2023-05-11T22:27:53.536Z,100707.88
2023-05-11T22:30:20.647Z,100709.60
2023-05-11T22:32:47.556Z,100707.55
2023-05-11T22:35:14.359Z,100706.17
2023-05-11T22:37:41.028Z,100704.96
2023-05-11T22:40:08.850Z,100710.76
2023-05-11T22:42:35.728Z,100710.67
2023-05-11T22:45:02.515Z,100712.70
2023-05-11T22:47:29.538Z,100712.36
2023-05-11T22:49:56.449Z,100710.23
2023-05-11T22:52:23.107Z,100714.83
2023-05-11T22:54:54.808Z,100712.66
2023-05-11T22:57:24.177Z,100711.39
2023-05-11T22:59:50.956Z,100713.02
2023-05-11T23:02:17.781Z,100712.86
2023-05-11T23:04:49.137Z,100711.27
2023-05-11T23:07:16.009Z,100710.55
2023-05-11T23:09:42.808Z,100713.89
2023-05-11T23:12:09.571Z,100712.76
2023-05-11T23:14:36.729Z,100716.10
2023-05-11T23:17:03.384Z,100716.02
2023-05-11T23:19:30.050Z,100716.11
2023-05-11T23:21:57.000Z,100716.71
2023-05-11T23:24:23.761Z,100714.85
2023-05-11T23:26:50.785Z,100719.97
2023-05-11T23:29:17.490Z,100718.14
2023-05-11T23:31:44.170Z,100717.55
2023-05-11T23:34:10.903Z,100714.99
2023-05-11T23:36:38.263Z,100714.73
2023-05-11T23:39:05.477Z,100713.78
2023-05-11T23:41:32.500Z,100714.63
2023-05-11T23:43:59.988Z,100712.83
2023-05-11T23:46:26.801Z,100714.06
2023-05-11T23:48:53.481Z,100715.13
2023-05-11T23:51:20.225Z,100717.28
2023-05-11T23:53:46.977Z,100717.11
2023-05-11T23:56:13.676Z,100717.16
2023-05-11T23:58:41.482Z,100720.50
